createdAt,value
2019-02-12T00:00:55.314Z,11.53
2019-02-12T00:03:27.097Z,10.07
2019-02-12T00:05:58.733Z,11.10
2019-02-12T00:08:30.317Z,10.30
2019-02-12T00:11:02.955Z,12.23
2019-02-12T00:13:34.894Z,10.00
2019-02-12T00:16:06.437Z,10.83
2019-02-12T00:18:37.908Z,9.27
2019-02-12T00:21:09.928Z,11.13
2019-02-12T00:23:41.429Z,9.77
2019-02-12T00:26:13.124Z,8.73
2019-02-12T00:28:44.928Z,11.27
2019-02-12T00:31:16.501Z,12.23
2019-02-12T00:33:48.057Z,10.97
2019-02-12T00:36:19.853Z,12.30
2019-02-12T00:38:51.325Z,8.13
2019-02-12T00:41:22.958Z,7.70
2019-02-12T00:43:54.429Z,6.83
2019-02-12T00:46:26.169Z,10.03
2019-02-12T00:48:57.685Z,10.10
2019-02-12T00:51:29.168Z,6.63
2019-02-12T00:54:00.677Z,8.73
2019-02-12T00:56:32.396Z,8.17
2019-02-12T00:59:04.028Z,10.80
2019-02-12T01:01:35.510Z,10.67
2019-02-12T01:04:06.969Z,12.43
2019-02-12T01:06:38.498Z,12.67
2019-02-12T01:09:09.973Z,10.13
2019-02-12T01:11:41.427Z,10.57
2019-02-12T01:14:13.221Z,10.60
2019-02-12T01:16:45.033Z,9.17
2019-02-12T01:19:16.453Z,11.23
2019-02-12T01:21:48.138Z,11.10
2019-02-12T01:24:19.581Z,9.43
2019-02-12T01:26:51.342Z,8.20
2019-02-12T01:29:23.074Z,7.87
2019-02-12T01:31:54.854Z,6.80
2019-02-12T01:34:26.329Z,7.50
2019-02-12T01:36:57.970Z,7.20
2019-02-12T01:39:29.406Z,5.67
2019-02-12T01:42:01.080Z,5.17
2019-02-12T01:44:33.018Z,4.33
2019-02-12T01:47:04.704Z,3.70
2019-02-12T01:49:36.173Z,4.03
2019-02-12T01:52:07.903Z,4.07
2019-02-12T01:54:39.392Z,4.13
2019-02-12T01:57:11.122Z,3.23
2019-02-12T01:59:42.744Z,3.57
2019-02-12T02:02:14.431Z,2.40
2019-02-12T02:04:46.451Z,2.67
2019-02-12T02:07:18.060Z,3.73
2019-02-12T02:09:49.535Z,2.30
2019-02-12T02:12:21.470Z,2.57
2019-02-12T02:14:53.493Z,3.17
2019-02-12T02:17:25.306Z,2.40
2019-02-12T02:19:56.766Z,2.83
2019-02-12T02:22:28.400Z,2.93
2019-02-12T02:24:59.956Z,2.93
2019-02-12T02:27:32.738Z,2.03
2019-02-12T02:30:04.470Z,3.90
2019-02-12T02:32:36.145Z,2.77
2019-02-12T02:35:08.121Z,2.30
2019-02-12T02:37:39.787Z,3.37
2019-02-12T02:40:11.341Z,2.10
2019-02-12T02:42:43.083Z,3.07
2019-02-12T02:45:14.861Z,2.17
2019-02-12T02:47:46.505Z,2.00
2019-02-12T02:50:18.015Z,3.23
2019-02-12T02:52:49.822Z,2.00
2019-02-12T02:55:21.280Z,2.00
2019-02-12T02:57:53.063Z,2.40
2019-02-12T03:00:24.718Z,3.17
2019-02-12T03:02:56.262Z,2.87
2019-02-12T03:05:27.715Z,1.73
2019-02-12T03:07:59.459Z,1.93
2019-02-12T03:10:30.937Z,2.83
2019-02-12T03:13:02.445Z,1.30
2019-02-12T03:15:33.948Z,2.57
2019-02-12T03:18:05.377Z,1.87
2019-02-12T03:20:36.844Z,2.83
2019-02-12T03:23:08.562Z,3.33
2019-02-12T03:25:40.049Z,2.33
2019-02-12T03:28:11.641Z,1.73
2019-02-12T03:30:43.366Z,2.13
2019-02-12T03:33:15.107Z,1.90
2019-02-12T03:35:46.644Z,2.47
2019-02-12T03:38:18.140Z,2.60
2019-02-12T03:40:49.608Z,1.53
2019-02-12T03:43:21.033Z,2.60
2019-02-12T03:45:52.633Z,3.03
2019-02-12T03:48:24.125Z,3.63
2019-02-12T03:50:55.660Z,2.07
2019-02-12T03:53:27.204Z,2.70
2019-02-12T03:55:58.688Z,4.13
2019-02-12T03:58:31.361Z,3.60
2019-02-12T04:01:02.915Z,2.83
2019-02-12T04:03:36.580Z,4.63
2019-02-12T04:06:08.033Z,4.63
2019-02-12T04:08:39.710Z,3.70
2019-02-12T04:11:11.213Z,2.57
2019-02-12T04:13:42.786Z,3.50
2019-02-12T04:16:14.317Z,2.50
2019-02-12T04:18:46.050Z,2.43
2019-02-12T04:21:17.473Z,3.30
2019-02-12T04:23:49.261Z,3.17
2019-02-12T04:26:20.731Z,3.00
2019-02-12T04:28:52.275Z,1.63
2019-02-12T04:31:23.951Z,3.53
2019-02-12T04:33:55.670Z,2.53
2019-02-12T04:36:27.143Z,4.60
2019-02-12T04:38:58.882Z,2.30
2019-02-12T04:41:30.386Z,2.07
2019-02-12T04:44:02.079Z,2.90
2019-02-12T04:46:33.887Z,2.83
2019-02-12T04:49:05.360Z,2.03
2019-02-12T04:51:36.892Z,4.17
2019-02-12T04:54:08.712Z,3.43
2019-02-12T04:56:40.255Z,1.90
2019-02-12T04:59:11.922Z,3.73
2019-02-12T05:01:43.848Z,1.03
2019-02-12T05:04:15.300Z,2.50
2019-02-12T05:06:46.747Z,3.90
2019-02-12T05:09:23.135Z,3.63
2019-02-12T05:12:03.992Z,3.63
2019-02-12T05:14:35.679Z,5.13
2019-02-12T05:17:07.241Z,3.03
2019-02-12T05:19:39.000Z,3.57
2019-02-12T05:22:10.450Z,3.60
2019-02-12T05:24:42.305Z,5.40
2019-02-12T05:27:13.764Z,3.20
2019-02-12T05:29:45.521Z,2.60
2019-02-12T05:32:17.267Z,5.27
2019-02-12T05:34:48.779Z,4.50
2019-02-12T05:37:20.225Z,3.97
2019-02-12T05:39:51.954Z,4.67
2019-02-12T05:42:23.386Z,5.07
2019-02-12T05:44:54.982Z,3.30
2019-02-12T05:47:26.773Z,4.70
2019-02-12T05:49:58.571Z,3.80
2019-02-12T05:52:30.035Z,6.50
2019-02-12T05:55:02.911Z,7.40
2019-02-12T05:57:34.339Z,6.73
2019-02-12T06:00:07.974Z,5.57
2019-02-12T06:02:39.437Z,7.73
2019-02-12T06:05:11.158Z,6.03
2019-02-12T06:07:42.695Z,7.20
2019-02-12T06:10:14.683Z,4.53
2019-02-12T06:12:46.469Z,5.60
2019-02-12T06:15:18.108Z,5.03
2019-02-12T06:17:49.705Z,5.63
2019-02-12T06:20:21.731Z,4.63
2019-02-12T06:23:01.755Z,5.83
2019-02-12T06:25:26.672Z,6.53
2019-02-12T06:27:58.223Z,6.03
2019-02-12T06:30:29.741Z,6.23
2019-02-12T06:33:07.601Z,6.50
2019-02-12T06:35:36.270Z,4.90
2019-02-12T06:38:07.831Z,7.93
2019-02-12T06:40:39.436Z,7.60
2019-02-12T06:43:10.948Z,7.97
2019-02-12T06:45:42.688Z,5.53
2019-02-12T06:48:14.154Z,4.60
2019-02-12T06:50:45.999Z,3.50
2019-02-12T06:53:17.494Z,6.20
2019-02-12T06:55:49.034Z,3.93
2019-02-12T06:58:20.579Z,5.80
2019-02-12T07:00:52.311Z,8.97
2019-02-12T07:03:27.943Z,5.70
2019-02-12T07:06:28.500Z,8.37
2019-02-12T07:09:55.020Z,5.40
2019-02-12T07:13:36.451Z,6.63
2019-02-12T07:16:46.645Z,5.30
2019-02-12T07:20:17.895Z,7.40
2019-02-12T07:23:50.548Z,5.23
2019-02-12T07:27:59.067Z,9.27
2019-02-12T07:31:46.281Z,9.63
2019-02-12T07:35:11.101Z,7.73
2019-02-12T07:38:12.186Z,7.00
2019-02-12T07:41:31.424Z,7.20
2019-02-12T07:45:33.436Z,8.47
2019-02-12T07:49:19.606Z,4.73
2019-02-12T07:52:45.321Z,4.00
2019-02-12T07:55:51.408Z,3.20
2019-02-12T07:59:24.245Z,5.10
2019-02-12T08:02:46.346Z,4.43
2019-02-12T08:06:13.546Z,6.60
2019-02-12T08:09:56.815Z,4.90
2019-02-12T08:13:04.227Z,5.50
2019-02-12T08:15:52.031Z,6.33
2019-02-12T08:19:04.826Z,4.37
2019-02-12T08:22:21.365Z,5.13
2019-02-12T08:26:17.207Z,3.20
2019-02-12T08:30:00.411Z,4.97
2019-02-12T08:33:39.346Z,4.67
2019-02-12T08:37:07.047Z,6.43
2019-02-12T08:40:54.519Z,5.67
2019-02-12T08:44:01.302Z,5.23
2019-02-12T08:47:46.549Z,4.60
2019-02-12T08:51:39.368Z,4.27
2019-02-12T08:55:08.945Z,5.20
2019-02-12T08:58:21.018Z,6.73
2019-02-12T09:01:34.818Z,5.53
2019-02-12T09:04:55.587Z,5.40
2019-02-12T09:07:59.395Z,4.47
2019-02-12T09:11:17.535Z,4.30
2019-02-12T09:14:53.322Z,3.53
2019-02-12T09:17:56.225Z,4.60
2019-02-12T09:21:32.154Z,3.80
2019-02-12T09:25:04.435Z,6.73
2019-02-12T09:28:30.698Z,4.43
2019-02-12T09:32:10.790Z,3.80
2019-02-12T09:34:57.133Z,7.23
2019-02-12T09:38:21.102Z,4.27
2019-02-12T09:41:30.095Z,7.17
2019-02-12T09:45:13.166Z,6.93
2019-02-12T09:48:11.127Z,6.50
2019-02-12T09:51:26.419Z,5.10
2019-02-12T09:54:19.927Z,4.30
2019-02-12T09:57:34.042Z,4.97
2019-02-12T10:00:41.778Z,5.47
2019-02-12T10:03:59.602Z,7.10
2019-02-12T10:07:46.426Z,6.90
2019-02-12T10:11:01.917Z,3.93
2019-02-12T10:14:09.000Z,5.37
2019-02-12T10:17:10.274Z,7.53
2019-02-12T10:20:13.971Z,6.70
2019-02-12T10:23:17.866Z,4.27
2019-02-12T10:26:01.137Z,2.73
2019-02-12T10:29:26.613Z,4.60
2019-02-12T10:31:55.855Z,4.27
2019-02-12T10:34:27.552Z,12.03
2019-02-12T10:36:59.130Z,4.23
2019-02-12T10:39:30.694Z,2.93
2019-02-12T10:42:02.160Z,5.17
2019-02-12T10:44:34.343Z,2.10
2019-02-12T10:47:05.965Z,4.63
2019-02-12T10:49:37.687Z,4.63
2019-02-12T10:52:09.424Z,5.13
2019-02-12T10:54:41.332Z,4.93
2019-02-12T10:57:12.893Z,2.70
2019-02-12T10:59:44.723Z,3.70
2019-02-12T11:02:16.347Z,4.00
2019-02-12T11:04:48.156Z,6.00
2019-02-12T11:07:19.683Z,3.07
2019-02-12T11:09:51.464Z,3.07
2019-02-12T11:12:22.984Z,4.70
2019-02-12T11:14:55.300Z,4.03
2019-02-12T11:17:26.773Z,2.20
2019-02-12T11:19:58.495Z,5.03
2019-02-12T11:22:30.133Z,4.97
2019-02-12T11:25:01.942Z,4.47
2019-02-12T11:27:33.498Z,3.10
2019-02-12T11:30:05.237Z,5.27
2019-02-12T11:32:36.699Z,4.43
2019-02-12T11:35:09.031Z,2.90
2019-02-12T11:37:40.571Z,5.13
2019-02-12T11:40:13.479Z,2.93
2019-02-12T11:42:45.132Z,3.80
2019-02-12T11:45:16.710Z,3.37
2019-02-12T11:47:48.439Z,6.40
2019-02-12T11:50:20.295Z,4.30
2019-02-12T11:52:51.972Z,7.37
2019-02-12T11:55:23.866Z,4.67
2019-02-12T11:57:55.403Z,4.70
2019-02-12T12:00:31.470Z,5.50
2019-02-12T12:03:03.124Z,7.83
2019-02-12T12:05:34.880Z,8.63
2019-02-12T12:08:06.441Z,4.13
2019-02-12T12:10:38.076Z,9.37
2019-02-12T12:13:09.659Z,8.17
2019-02-12T12:15:41.707Z,3.80
2019-02-12T12:18:13.207Z,3.67
2019-02-12T12:20:44.754Z,5.17
2019-02-12T12:23:16.258Z,5.90
2019-02-12T12:25:47.909Z,4.90
2019-02-12T12:28:19.515Z,4.07
2019-02-12T12:30:51.339Z,5.63
2019-02-12T12:33:22.811Z,6.87
2019-02-12T12:35:54.365Z,7.23
2019-02-12T12:38:25.930Z,5.77
2019-02-12T12:40:57.516Z,8.90
2019-02-12T12:43:29.854Z,6.20
2019-02-12T12:46:01.955Z,7.87
2019-02-12T12:48:34.553Z,4.80
2019-02-12T12:51:06.323Z,5.97
2019-02-12T12:53:37.775Z,5.37
2019-02-12T12:56:09.648Z,5.17
2019-02-12T12:58:41.096Z,6.43
2019-02-12T13:01:13.033Z,6.13
2019-02-12T13:03:44.555Z,7.77
2019-02-12T13:06:16.574Z,4.10
2019-02-12T13:08:48.159Z,6.27
2019-02-12T13:11:19.992Z,7.10
2019-02-12T13:13:51.559Z,6.90
2019-02-12T13:16:23.808Z,5.43
2019-02-12T13:18:55.335Z,4.33
2019-02-12T13:21:27.497Z,4.97
2019-02-12T13:23:59.256Z,6.60
2019-02-12T13:26:31.715Z,7.87
2019-02-12T13:29:03.778Z,7.53
2019-02-12T13:31:35.728Z,4.67
2019-02-12T13:34:07.518Z,5.67
2019-02-12T13:36:39.293Z,5.60
2019-02-12T13:39:10.749Z,9.10
2019-02-12T13:41:42.627Z,7.03
2019-02-12T13:44:14.159Z,5.03
2019-02-12T13:46:47.178Z,7.43
2019-02-12T13:49:18.734Z,6.47
2019-02-12T13:51:50.473Z,6.97
2019-02-12T13:54:22.098Z,5.10
2019-02-12T13:56:53.908Z,9.37
2019-02-12T13:59:25.395Z,6.60
2019-02-12T14:01:56.937Z,7.10
2019-02-12T14:04:28.472Z,5.57
2019-02-12T14:07:00.316Z,4.13
2019-02-12T14:09:31.901Z,6.80
2019-02-12T14:12:03.845Z,5.23
2019-02-12T14:14:35.363Z,4.40
2019-02-12T14:17:08.062Z,6.37
2019-02-12T14:19:39.558Z,7.30
2019-02-12T14:22:11.103Z,5.37
2019-02-12T14:24:42.582Z,5.60
2019-02-12T14:27:14.105Z,7.37
2019-02-12T14:29:45.608Z,5.97
2019-02-12T14:32:17.310Z,4.57
2019-02-12T14:34:48.931Z,4.50
2019-02-12T14:37:20.523Z,7.67
2019-02-12T14:39:52.001Z,5.33
2019-02-12T14:42:23.732Z,4.50
2019-02-12T14:44:55.289Z,5.50
2019-02-12T14:47:27.334Z,6.37
2019-02-12T14:49:58.893Z,8.00
2019-02-12T14:52:30.506Z,7.30
2019-02-12T14:55:02.432Z,5.67
2019-02-12T14:57:34.138Z,6.80
2019-02-12T15:00:06.565Z,7.50
2019-02-12T15:02:38.894Z,14.80
2019-02-12T15:05:10.617Z,9.00
2019-02-12T15:07:42.289Z,14.77
2019-02-12T15:10:13.775Z,12.37
2019-02-12T15:12:45.402Z,9.43
2019-02-12T15:15:16.884Z,11.07
2019-02-12T15:17:48.793Z,5.27
2019-02-12T15:20:20.387Z,6.53
2019-02-12T15:22:52.390Z,11.80
2019-02-12T15:25:23.939Z,6.77
2019-02-12T15:27:55.505Z,7.30
2019-02-12T15:30:26.979Z,8.30
2019-02-12T15:32:58.604Z,5.97
2019-02-12T15:35:30.111Z,10.00
2019-02-12T15:38:01.892Z,6.70
2019-02-12T15:40:33.507Z,9.53
2019-02-12T15:43:05.140Z,7.33
2019-02-12T15:45:36.610Z,8.93
2019-02-12T15:48:08.311Z,6.80
2019-02-12T15:50:39.902Z,9.73
2019-02-12T15:53:11.866Z,7.33
2019-02-12T15:55:51.134Z,8.20
2019-02-12T15:58:18.644Z,7.97
2019-02-12T16:00:50.177Z,6.67
2019-02-12T16:03:22.356Z,7.43
2019-02-12T16:05:54.800Z,8.27
2019-02-12T16:08:28.568Z,11.63
2019-02-12T16:11:01.476Z,10.60
2019-02-12T16:13:34.707Z,10.93
2019-02-12T16:16:07.810Z,12.33
2019-02-12T16:18:40.398Z,11.37
2019-02-12T16:21:11.855Z,11.30
2019-02-12T16:23:43.716Z,9.70
2019-02-12T16:26:15.356Z,10.43
2019-02-12T16:28:47.547Z,15.90
2019-02-12T16:31:19.233Z,11.33
2019-02-12T16:33:51.233Z,9.73
2019-02-12T16:36:22.768Z,8.10
2019-02-12T16:38:54.573Z,9.70
2019-02-12T16:41:26.171Z,7.33
2019-02-12T16:43:57.976Z,11.00
2019-02-12T16:46:29.733Z,10.47
2019-02-12T16:49:01.408Z,14.43
2019-02-12T16:51:33.006Z,7.00
2019-02-12T16:54:08.230Z,7.87
2019-02-12T16:56:39.878Z,8.43
2019-02-12T16:59:11.553Z,6.23
2019-02-12T17:01:43.206Z,6.60
2019-02-12T17:04:15.335Z,7.70
2019-02-12T17:06:47.023Z,6.03
2019-02-12T17:09:18.996Z,7.17
2019-02-12T17:11:50.690Z,5.53
2019-02-12T17:14:22.902Z,4.60
2019-02-12T17:16:54.500Z,3.47
2019-02-12T17:19:26.941Z,5.23
2019-02-12T17:21:58.476Z,6.50
2019-02-12T17:24:30.419Z,5.97
2019-02-12T17:27:01.973Z,5.37
2019-02-12T17:29:34.235Z,5.80
2019-02-12T17:32:06.011Z,7.30
2019-02-12T17:34:38.878Z,6.50
2019-02-12T17:37:10.394Z,9.60
2019-02-12T17:39:42.191Z,6.20
2019-02-12T17:42:13.966Z,10.20
2019-02-12T17:44:45.839Z,7.83
2019-02-12T17:47:17.589Z,6.90
2019-02-12T17:49:49.769Z,10.73
2019-02-12T17:52:22.269Z,15.37
2019-02-12T17:54:54.203Z,10.23
2019-02-12T17:57:25.703Z,13.33
2019-02-12T17:59:57.627Z,9.47
2019-02-12T18:02:30.811Z,11.60
2019-02-12T18:05:03.075Z,10.17
2019-02-12T18:07:35.808Z,12.27
2019-02-12T18:10:07.721Z,14.43
2019-02-12T18:12:39.324Z,15.37
2019-02-12T18:15:12.155Z,15.40
2019-02-12T18:17:43.770Z,16.57
2019-02-12T18:20:16.022Z,17.10
2019-02-12T18:22:47.939Z,20.73
2019-02-12T18:25:19.888Z,17.63
2019-02-12T18:27:51.816Z,17.47
2019-02-12T18:30:23.626Z,18.63
2019-02-12T18:32:55.836Z,18.00
2019-02-12T18:35:28.531Z,15.37
2019-02-12T18:38:00.565Z,19.63
2019-02-12T18:40:32.684Z,21.47
2019-02-12T18:43:04.541Z,20.83
2019-02-12T18:45:36.671Z,20.20
2019-02-12T18:48:08.338Z,20.20
2019-02-12T18:50:41.454Z,24.17
2019-02-12T18:53:13.400Z,24.70
2019-02-12T18:55:45.346Z,27.23
2019-02-12T18:58:16.992Z,23.73
2019-02-12T19:00:49.658Z,26.83
2019-02-12T19:03:22.521Z,29.00
2019-02-12T19:05:54.632Z,23.50
2019-02-12T19:08:26.399Z,29.23
2019-02-12T19:10:58.582Z,22.23
2019-02-12T19:13:30.329Z,19.40
2019-02-12T19:16:02.767Z,25.23
2019-02-12T19:18:34.470Z,22.90
2019-02-12T19:21:06.720Z,24.87
2019-02-12T19:23:38.482Z,27.63
2019-02-12T19:26:10.191Z,21.50
2019-02-12T19:28:42.221Z,31.73
2019-02-12T19:31:14.364Z,26.10
2019-02-12T19:33:46.319Z,27.07
2019-02-12T19:36:19.220Z,31.73
2019-02-12T19:38:51.517Z,26.87
2019-02-12T19:41:24.234Z,27.07
2019-02-12T19:43:56.516Z,29.47
2019-02-12T19:46:29.060Z,26.50
2019-02-12T19:49:01.053Z,32.23
2019-02-12T19:51:33.975Z,30.23
2019-02-12T19:54:06.248Z,48.10
2019-02-12T19:56:38.497Z,42.83
2019-02-12T19:59:10.456Z,55.63
2019-02-12T20:01:42.684Z,66.63
2019-02-12T20:04:14.560Z,61.97
2019-02-12T20:06:47.543Z,42.57
2019-02-12T20:09:23.181Z,54.50
2019-02-12T20:11:55.322Z,40.27
2019-02-12T20:14:27.079Z,36.47
2019-02-12T20:16:59.813Z,35.57
2019-02-12T20:19:32.100Z,35.57
2019-02-12T20:22:05.411Z,35.63
2019-02-12T20:24:37.108Z,37.17
2019-02-12T20:27:09.105Z,37.87
2019-02-12T20:29:40.719Z,35.53
2019-02-12T20:32:12.535Z,33.77
2019-02-12T20:34:44.148Z,29.70
2019-02-12T20:37:16.572Z,28.17
2019-02-12T20:39:48.461Z,31.27
2019-02-12T20:42:20.388Z,28.33
2019-02-12T20:44:52.207Z,29.10
2019-02-12T20:47:24.488Z,33.03
2019-02-12T20:49:56.318Z,32.90
2019-02-12T20:52:30.045Z,34.77
2019-02-12T20:55:01.835Z,33.43
2019-02-12T20:57:34.191Z,35.20
2019-02-12T21:00:07.925Z,37.87
2019-02-12T21:02:40.063Z,43.60
2019-02-12T21:05:12.967Z,37.87
2019-02-12T21:07:45.026Z,42.50
2019-02-12T21:10:17.795Z,39.73
2019-02-12T21:12:49.914Z,35.90
2019-02-12T21:15:22.141Z,36.17
2019-02-12T21:17:54.469Z,35.23
2019-02-12T21:20:26.315Z,45.40
2019-02-12T21:22:58.340Z,44.63
2019-02-12T21:25:30.056Z,36.33
2019-02-12T21:28:02.311Z,37.07
2019-02-12T21:30:34.709Z,31.73
2019-02-12T21:33:07.186Z,30.40
2019-02-12T21:35:39.541Z,25.27
2019-02-12T21:38:15.733Z,30.47
2019-02-12T21:40:48.454Z,29.63
2019-02-12T21:43:20.292Z,26.13
2019-02-12T21:45:51.907Z,28.67
2019-02-12T21:48:23.857Z,27.27
2019-02-12T21:50:55.559Z,26.80
2019-02-12T21:53:28.058Z,28.17
2019-02-12T21:56:00.623Z,26.00
2019-02-12T21:58:33.098Z,26.13
2019-02-12T22:01:04.821Z,29.50
2019-02-12T22:03:37.168Z,32.63
2019-02-12T22:06:09.090Z,33.47
2019-02-12T22:08:42.438Z,35.90
2019-02-12T22:11:14.174Z,33.57
2019-02-12T22:13:47.055Z,38.00
2019-02-12T22:16:18.901Z,31.40
2019-02-12T22:18:50.541Z,37.10
2019-02-12T22:21:22.068Z,29.20
2019-02-12T22:23:54.621Z,31.50
2019-02-12T22:26:26.306Z,33.27
2019-02-12T22:28:59.659Z,27.87
2019-02-12T22:31:31.592Z,27.00
2019-02-12T22:34:03.318Z,31.80
2019-02-12T22:36:35.359Z,27.50
2019-02-12T22:39:09.520Z,26.97
2019-02-12T22:41:42.448Z,29.53
2019-02-12T22:44:14.938Z,28.67
2019-02-12T22:46:47.827Z,28.00
2019-02-12T22:49:19.755Z,24.53
2019-02-12T22:51:51.267Z,24.13
2019-02-12T22:54:23.324Z,22.00
2019-02-12T22:56:55.002Z,26.30
2019-02-12T22:59:26.626Z,29.70
2019-02-12T23:01:58.257Z,23.37
2019-02-12T23:04:30.118Z,27.37
2019-02-12T23:07:01.746Z,26.97
2019-02-12T23:09:33.577Z,29.13
2019-02-12T23:12:05.097Z,26.47
2019-02-12T23:14:37.026Z,26.87
2019-02-12T23:17:08.537Z,24.83
2019-02-12T23:19:41.565Z,25.30
2019-02-12T23:22:13.043Z,24.87
2019-02-12T23:24:44.890Z,24.30
2019-02-12T23:27:16.415Z,21.93
2019-02-12T23:29:48.208Z,22.93
2019-02-12T23:32:19.819Z,24.33
2019-02-12T23:34:56.932Z,22.80
2019-02-12T23:37:24.555Z,24.43
2019-02-12T23:39:56.062Z,21.30
2019-02-12T23:42:27.546Z,24.37
2019-02-12T23:44:59.073Z,23.70
2019-02-12T23:47:30.820Z,24.47
2019-02-12T23:50:02.582Z,25.37
2019-02-12T23:52:34.114Z,23.17
2019-02-12T23:55:06.158Z,24.47
2019-02-12T23:57:37.621Z,23.03
